createdAt,value
2023-04-18T00:04:37.777Z,100146.34
2023-04-18T00:14:43.799Z,100146.23
2023-04-18T00:24:50.100Z,100149.45
2023-04-18T00:34:56.007Z,100156.09
2023-04-18T00:45:01.943Z,100155.17
2023-04-18T00:55:10.135Z,100152.49
2023-04-18T01:05:16.438Z,100147.12
2023-04-18T01:15:22.207Z,100145.17
2023-04-18T01:25:28.100Z,100147.24
2023-04-18T01:35:34.834Z,100143.10
2023-04-18T01:45:40.551Z,100141.19
2023-04-18T01:55:46.422Z,100144.91
2023-04-18T02:05:52.617Z,100145.59
2023-04-18T02:15:58.339Z,100144.54
2023-04-18T02:26:04.246Z,100146.31
2023-04-18T02:36:10.740Z,100143.10
2023-04-18T02:46:16.962Z,100143.83
2023-04-18T02:56:22.940Z,100144.62
2023-04-18T03:06:28.697Z,100144.99
2023-04-18T03:16:34.700Z,100153.60
2023-04-18T03:26:40.524Z,100148.41
2023-04-18T03:36:48.013Z,100156.80
2023-04-18T03:46:55.945Z,100154.30
2023-04-18T03:57:03.173Z,100157.67
2023-04-18T04:07:09.008Z,100155.40
2023-04-18T04:17:14.697Z,100159.14
2023-04-18T04:27:20.682Z,100169.83
2023-04-18T04:37:26.295Z,100181.45
2023-04-18T04:47:32.048Z,100195.27
2023-04-18T04:57:38.029Z,100201.56
2023-04-18T05:07:43.751Z,100211.05
2023-04-18T05:17:49.555Z,100217.38
2023-04-18T05:27:55.357Z,100215.71
2023-04-18T05:38:01.893Z,100224.97
2023-04-18T05:48:07.904Z,100226.14
2023-04-18T05:58:13.714Z,100224.63
2023-04-18T06:08:19.395Z,100222.34
2023-04-18T06:18:25.188Z,100222.65
2023-04-18T06:28:30.896Z,100234.02
2023-04-18T06:38:36.685Z,100237.25
2023-04-18T06:48:42.395Z,100246.30
2023-04-18T06:58:48.716Z,100250.05
2023-04-18T07:09:00.048Z,100240.07
2023-04-18T07:19:06.260Z,100240.14
2023-04-18T07:29:12.003Z,100248.77
2023-04-18T07:39:17.690Z,100260.58
2023-04-18T07:49:23.776Z,100256.94
2023-04-18T07:59:32.305Z,100260.88
2023-04-18T08:09:37.987Z,100268.48
2023-04-18T08:19:45.182Z,100276.58
2023-04-18T08:29:50.901Z,100279.75
2023-04-18T08:39:56.612Z,100280.37
2023-04-18T08:50:03.776Z,100277.63
2023-04-18T09:00:12.123Z,100281.50
2023-04-18T09:10:28.769Z,100274.71
2023-04-18T09:20:37.733Z,100262.48
2023-04-18T09:30:43.951Z,100265.83
2023-04-18T09:41:07.799Z,100262.22
2023-04-18T09:51:15.897Z,100265.05
2023-04-18T10:01:21.629Z,100260.40
2023-04-18T10:11:28.013Z,100267.36
2023-04-18T10:21:33.754Z,100270.91
2023-04-18T10:31:41.636Z,100257.09
2023-04-18T10:41:52.513Z,100250.19
2023-04-18T10:52:00.306Z,100258.14
2023-04-18T11:02:20.351Z,100251.48
2023-04-18T11:12:29.852Z,100251.08
2023-04-18T11:22:44.183Z,100247.60
2023-04-18T11:32:50.080Z,100242.42
2023-04-18T11:42:56.847Z,100235.30
2023-04-18T11:53:02.515Z,100229.64
2023-04-18T12:03:16.369Z,100223.00
2023-04-18T12:13:28.007Z,100214.26
2023-04-18T12:23:36.894Z,100205.58
2023-04-18T12:33:42.629Z,100203.38
2023-04-18T12:43:48.316Z,100193.30
2023-04-18T12:53:53.982Z,100195.64
2023-04-18T13:04:11.019Z,100184.78
2023-04-18T13:14:18.548Z,100176.86
2023-04-18T13:24:24.252Z,100171.80
2023-04-18T13:34:29.939Z,100159.41
2023-04-18T13:44:36.639Z,100158.52
2023-04-18T13:54:43.386Z,100153.39
2023-04-18T14:04:49.310Z,100142.49
2023-04-18T14:14:55.035Z,100143.02
2023-04-18T14:25:01.303Z,100144.48
2023-04-18T14:35:09.263Z,100142.02
2023-04-18T14:45:16.407Z,100138.66
2023-04-18T14:55:22.078Z,100145.60
2023-04-18T15:05:28.106Z,100142.17
2023-04-18T15:15:35.605Z,100139.02
2023-04-18T15:25:41.418Z,100133.08
2023-04-18T15:35:47.382Z,100132.20
2023-04-18T15:45:53.511Z,100130.96
2023-04-18T15:56:01.002Z,100123.71
2023-04-18T16:06:07.148Z,100122.73
2023-04-18T16:16:13.729Z,100117.27
2023-04-18T16:26:19.949Z,100117.73
2023-04-18T16:36:26.211Z,100110.02
2023-04-18T16:46:32.748Z,100109.70
2023-04-18T16:56:39.044Z,100107.83
2023-04-18T17:06:44.710Z,100108.65
2023-04-18T17:16:52.822Z,100107.02
2023-04-18T17:27:00.435Z,100109.31
2023-04-18T17:37:06.439Z,100113.13
2023-04-18T17:47:12.116Z,100110.05
2023-04-18T17:57:18.030Z,100108.27
2023-04-18T18:07:23.825Z,100110.40
2023-04-18T18:17:30.152Z,100109.52
2023-04-18T18:27:36.202Z,100104.16
2023-04-18T18:37:42.146Z,100097.70
2023-04-18T18:47:48.444Z,100096.11
2023-04-18T18:57:55.095Z,100094.02
2023-04-18T19:08:04.120Z,100086.93
2023-04-18T19:18:11.054Z,100084.10
2023-04-18T19:28:18.404Z,100078.92
2023-04-18T19:38:24.246Z,100069.11
2023-04-18T19:48:30.261Z,100060.67
2023-04-18T19:58:44.961Z,100055.20
2023-04-18T20:08:51.018Z,100055.02
2023-04-18T20:18:57.295Z,100056.39
2023-04-18T20:29:04.045Z,100044.70
2023-04-18T20:39:09.962Z,100044.56
2023-04-18T20:49:15.866Z,100038.98
2023-04-18T20:59:21.773Z,100028.88
2023-04-18T21:09:27.642Z,100022.73
2023-04-18T21:19:33.433Z,100010.64
2023-04-18T21:29:39.289Z,99998.65
2023-04-18T21:39:45.351Z,99998.54
2023-04-18T21:49:51.975Z,99994.66
2023-04-18T21:59:59.833Z,99989.45
2023-04-18T22:10:05.789Z,99980.72
2023-04-18T22:20:13.073Z,99973.40
2023-04-18T22:30:18.979Z,99963.22
2023-04-18T22:40:24.772Z,99951.11
2023-04-18T22:50:30.863Z,99944.16
2023-04-18T23:00:37.053Z,99932.02
2023-04-18T23:10:42.833Z,99917.09
2023-04-18T23:20:48.540Z,99905.27
2023-04-18T23:30:54.335Z,99883.44
2023-04-18T23:41:00.043Z,99875.95
2023-04-18T23:51:06.237Z,99865.65
